createdAt,value
2019-03-03T00:01:51.832Z,83.76
2019-03-03T00:04:21.165Z,83.53
2019-03-03T00:06:51.165Z,83.14
2019-03-03T00:09:21.121Z,82.22
2019-03-03T00:11:50.658Z,82.94
2019-03-03T00:14:20.717Z,82.76
2019-03-03T00:16:50.256Z,82.45
2019-03-03T00:19:19.387Z,81.54
2019-03-03T00:21:48.620Z,81.60
2019-03-03T00:24:18.032Z,81.16
2019-03-03T00:26:47.382Z,80.16
2019-03-03T00:29:18.745Z,79.71
2019-03-03T00:31:47.894Z,79.77
2019-03-03T00:34:16.996Z,79.67
2019-03-03T00:37:16.969Z,79.32
2019-03-03T00:40:11.102Z,79.69
2019-03-03T00:42:52.597Z,78.43
2019-03-03T00:45:44.063Z,78.11
2019-03-03T00:48:29.079Z,77.65
2019-03-03T00:51:16.261Z,76.56
2019-03-03T00:54:19.598Z,76.26
2019-03-03T00:57:01.177Z,75.67
2019-03-03T00:59:47.933Z,74.18
2019-03-03T01:02:33.945Z,74.83
2019-03-03T01:05:14.101Z,74.91
2019-03-03T01:07:54.036Z,74.80
2019-03-03T01:10:51.214Z,74.75
2019-03-03T01:13:38.176Z,73.84
2019-03-03T01:16:23.626Z,73.59
2019-03-03T01:19:01.255Z,73.80
2019-03-03T01:21:38.598Z,73.60
2019-03-03T01:24:29.797Z,73.63
2019-03-03T01:26:58.890Z,73.11
2019-03-03T01:29:28.012Z,73.57
2019-03-03T01:31:57.082Z,72.81
2019-03-03T01:34:26.265Z,73.28
2019-03-03T01:36:55.449Z,73.17
2019-03-03T01:39:24.656Z,73.94
2019-03-03T01:41:54.016Z,73.78
2019-03-03T01:44:23.221Z,73.86
2019-03-03T01:46:52.552Z,73.62
2019-03-03T01:49:21.692Z,73.98
2019-03-03T01:51:50.773Z,74.27
2019-03-03T01:54:20.050Z,74.51
2019-03-03T01:56:49.339Z,75.04
2019-03-03T01:59:18.709Z,75.28
2019-03-03T02:01:47.787Z,75.36
2019-03-03T02:04:16.900Z,75.29
2019-03-03T02:06:46.065Z,75.85
2019-03-03T02:09:15.386Z,75.89
2019-03-03T02:11:44.670Z,74.71
2019-03-03T02:14:14.167Z,74.54
2019-03-03T02:16:43.247Z,73.72
2019-03-03T02:19:12.346Z,74.27
2019-03-03T02:21:41.422Z,74.46
2019-03-03T02:24:10.847Z,74.45
2019-03-03T02:26:39.902Z,73.92
2019-03-03T02:29:09.182Z,74.08
2019-03-03T02:31:38.329Z,74.48
2019-03-03T02:34:07.536Z,73.72
2019-03-03T02:36:36.834Z,73.30
2019-03-03T02:39:14.079Z,72.91
2019-03-03T02:41:43.130Z,73.11
2019-03-03T02:44:12.466Z,73.54
2019-03-03T02:46:41.506Z,73.57
2019-03-03T02:49:11.016Z,73.46
2019-03-03T02:51:41.996Z,73.22
2019-03-03T02:54:11.418Z,73.56
2019-03-03T02:56:40.602Z,74.09
2019-03-03T02:59:09.753Z,73.32
2019-03-03T03:01:42.638Z,72.98
2019-03-03T03:04:12.062Z,73.25
2019-03-03T03:06:49.766Z,73.10
2019-03-03T03:09:24.479Z,73.39
2019-03-03T03:12:27.863Z,74.00
2019-03-03T03:15:12.202Z,73.76
2019-03-03T03:17:59.314Z,73.38
2019-03-03T03:20:50.150Z,73.61
2019-03-03T03:23:24.693Z,73.56
2019-03-03T03:26:03.722Z,74.15
2019-03-03T03:28:50.724Z,74.50
2019-03-03T03:31:36.022Z,75.03
2019-03-03T03:34:10.505Z,75.45
2019-03-03T03:37:07.835Z,75.54
2019-03-03T03:40:04.887Z,75.71
2019-03-03T03:42:51.731Z,75.58
2019-03-03T03:45:39.899Z,76.09
2019-03-03T03:48:40.433Z,76.07
2019-03-03T03:51:26.727Z,76.08
2019-03-03T03:54:09.565Z,76.44
2019-03-03T03:57:03.678Z,76.60
2019-03-03T03:59:50.666Z,77.13
2019-03-03T04:02:44.703Z,76.97
2019-03-03T04:05:26.023Z,76.90
2019-03-03T04:08:15.453Z,77.20
2019-03-03T04:11:02.453Z,77.33
2019-03-03T04:14:05.911Z,77.45
2019-03-03T04:16:56.673Z,77.11
2019-03-03T04:19:54.365Z,77.38
2019-03-03T04:22:37.251Z,77.48
2019-03-03T04:25:14.512Z,77.43
2019-03-03T04:27:50.966Z,77.67
2019-03-03T04:30:37.141Z,77.39
2019-03-03T04:33:24.790Z,77.02
2019-03-03T04:36:31.161Z,76.46
2019-03-03T04:39:17.913Z,75.51
2019-03-03T04:41:58.900Z,76.07
2019-03-03T04:44:44.511Z,76.09
2019-03-03T04:47:38.519Z,75.54
2019-03-03T04:50:22.046Z,75.03
2019-03-03T04:53:10.269Z,75.13
2019-03-03T04:56:04.379Z,75.39
2019-03-03T04:58:51.093Z,75.24
2019-03-03T05:01:34.996Z,75.13
2019-03-03T05:04:25.932Z,75.31
2019-03-03T05:07:01.486Z,75.81
2019-03-03T05:09:52.483Z,75.58
2019-03-03T05:12:39.747Z,75.05
2019-03-03T05:15:32.262Z,75.01
2019-03-03T05:18:13.316Z,75.11
2019-03-03T05:20:47.049Z,75.13
2019-03-03T05:23:16.089Z,75.60
2019-03-03T05:25:45.130Z,75.21
2019-03-03T05:28:14.426Z,75.42
2019-03-03T05:30:45.354Z,75.44
2019-03-03T05:33:14.435Z,75.79
2019-03-03T05:35:43.859Z,76.06
2019-03-03T05:38:12.934Z,75.80
2019-03-03T05:40:42.121Z,75.90
2019-03-03T05:43:11.462Z,76.33
2019-03-03T05:45:40.547Z,76.29
2019-03-03T05:48:09.732Z,77.16
2019-03-03T05:50:39.053Z,77.47
2019-03-03T05:53:08.174Z,77.70
2019-03-03T05:55:37.442Z,77.52
2019-03-03T05:58:06.640Z,78.20
2019-03-03T06:00:35.745Z,78.67
2019-03-03T06:03:05.144Z,78.82
2019-03-03T06:05:34.374Z,79.76
2019-03-03T06:08:03.544Z,79.96
2019-03-03T06:10:32.775Z,80.43
2019-03-03T06:13:01.874Z,80.88
2019-03-03T06:15:34.123Z,80.86
2019-03-03T06:18:03.424Z,81.42
2019-03-03T06:20:32.669Z,81.40
2019-03-03T06:23:01.866Z,81.64
2019-03-03T06:25:31.090Z,81.94
2019-03-03T06:28:00.273Z,82.05
2019-03-03T06:30:29.528Z,81.93
2019-03-03T06:32:58.827Z,82.13
2019-03-03T06:35:28.251Z,82.43
2019-03-03T06:37:57.331Z,82.91
2019-03-03T06:40:26.374Z,82.87
2019-03-03T06:42:55.617Z,82.96
2019-03-03T06:45:24.744Z,82.77
2019-03-03T06:47:54.074Z,83.07
2019-03-03T06:50:23.354Z,83.47
2019-03-03T06:52:52.471Z,83.65
2019-03-03T06:55:21.757Z,83.53
2019-03-03T06:57:50.971Z,82.87
2019-03-03T07:00:20.259Z,82.60
2019-03-03T07:02:49.656Z,82.00
2019-03-03T07:05:18.698Z,82.02
2019-03-03T07:07:47.833Z,81.36
2019-03-03T07:10:17.042Z,81.72
2019-03-03T07:12:46.111Z,82.07
2019-03-03T07:15:16.442Z,82.09
2019-03-03T07:17:45.806Z,81.36
2019-03-03T07:20:15.049Z,80.87
2019-03-03T07:22:44.444Z,80.94
2019-03-03T07:25:14.270Z,80.94
2019-03-03T07:27:43.518Z,80.82
2019-03-03T07:30:14.109Z,80.99
2019-03-03T07:32:47.737Z,80.57
2019-03-03T07:35:17.192Z,80.65
2019-03-03T07:37:46.473Z,80.61
2019-03-03T07:40:15.644Z,80.84
2019-03-03T07:42:44.700Z,80.37
2019-03-03T07:45:13.972Z,79.80
2019-03-03T07:47:43.123Z,79.87
2019-03-03T07:50:12.268Z,79.80
2019-03-03T07:52:41.620Z,79.15
2019-03-03T07:55:10.950Z,79.23
2019-03-03T07:57:40.273Z,78.00
2019-03-03T08:00:10.563Z,77.97
2019-03-03T08:02:40.200Z,77.04
2019-03-03T08:05:09.293Z,76.80
2019-03-03T08:07:38.365Z,76.56
2019-03-03T08:10:08.146Z,76.64
2019-03-03T08:12:37.403Z,76.81
2019-03-03T08:15:06.601Z,76.02
2019-03-03T08:17:35.925Z,76.01
2019-03-03T08:20:06.401Z,76.15
2019-03-03T08:22:35.510Z,75.98
2019-03-03T08:25:04.627Z,75.44
2019-03-03T08:27:33.742Z,76.14
2019-03-03T08:30:02.847Z,75.71
2019-03-03T08:32:32.099Z,74.58
2019-03-03T08:35:01.237Z,75.15
2019-03-03T08:37:30.650Z,75.58
2019-03-03T08:39:59.766Z,75.18
2019-03-03T08:42:43.152Z,73.73
2019-03-03T08:45:37.074Z,73.52
2019-03-03T08:48:16.412Z,73.05
2019-03-03T08:50:53.323Z,72.86
2019-03-03T08:53:38.207Z,72.89
2019-03-03T08:56:15.976Z,72.19
2019-03-03T08:59:00.744Z,72.50
2019-03-03T09:01:51.856Z,73.33
2019-03-03T09:04:35.327Z,72.66
2019-03-03T09:07:26.352Z,73.04
2019-03-03T09:10:25.351Z,73.50
2019-03-03T09:13:04.476Z,72.63
2019-03-03T09:15:59.021Z,72.27
2019-03-03T09:18:59.494Z,71.49
2019-03-03T09:21:46.387Z,72.01
2019-03-03T09:24:27.145Z,72.22
2019-03-03T09:27:17.447Z,71.33
2019-03-03T09:30:11.453Z,71.86
2019-03-03T09:32:58.218Z,71.37
2019-03-03T09:35:45.293Z,70.02
2019-03-03T09:38:22.312Z,69.77
2019-03-03T09:41:01.199Z,69.56
2019-03-03T09:43:52.288Z,69.95
2019-03-03T09:46:58.563Z,69.69
2019-03-03T09:49:58.988Z,68.91
2019-03-03T09:52:45.660Z,69.69
2019-03-03T09:55:21.386Z,67.74
2019-03-03T09:58:05.297Z,68.10
2019-03-03T10:00:50.189Z,69.18
2019-03-03T10:03:37.857Z,69.54
2019-03-03T10:06:28.696Z,68.85
2019-03-03T10:09:13.213Z,69.47
2019-03-03T10:12:13.635Z,69.73
2019-03-03T10:14:51.823Z,69.96
2019-03-03T10:17:48.831Z,70.73
2019-03-03T10:20:36.154Z,69.66
2019-03-03T10:23:29.221Z,70.43
2019-03-03T10:26:10.906Z,70.36
2019-03-03T10:29:02.248Z,69.21
2019-03-03T10:32:01.503Z,70.12
2019-03-03T10:34:56.311Z,69.24
2019-03-03T10:37:44.348Z,69.99
2019-03-03T10:40:29.422Z,69.34
2019-03-03T10:43:08.470Z,70.07
2019-03-03T10:45:45.069Z,69.79
2019-03-03T10:48:38.247Z,69.36
2019-03-03T10:51:29.296Z,69.32
2019-03-03T10:54:25.977Z,69.06
2019-03-03T10:57:20.021Z,69.75
2019-03-03T11:00:06.839Z,69.94
2019-03-03T11:02:46.437Z,69.60
2019-03-03T11:05:37.727Z,69.43
2019-03-03T11:08:44.202Z,69.05
2019-03-03T11:11:30.858Z,68.56
2019-03-03T11:14:15.327Z,69.09
2019-03-03T11:17:03.588Z,68.03
2019-03-03T11:19:43.226Z,68.87
2019-03-03T11:22:21.166Z,68.08
2019-03-03T11:25:09.995Z,67.69
2019-03-03T11:27:52.788Z,68.17
2019-03-03T11:30:44.074Z,68.40
2019-03-03T11:33:38.223Z,68.38
2019-03-03T11:36:25.343Z,67.51
2019-03-03T11:39:04.018Z,67.70
2019-03-03T11:41:44.757Z,67.74
2019-03-03T11:44:25.073Z,67.10
2019-03-03T11:47:03.605Z,67.29
2019-03-03T11:49:49.678Z,66.57
2019-03-03T11:52:37.685Z,67.40
2019-03-03T11:55:19.964Z,66.93
2019-03-03T11:57:57.453Z,66.30
2019-03-03T12:00:44.476Z,66.84
2019-03-03T12:03:32.209Z,66.57
2019-03-03T12:06:26.582Z,66.97
2019-03-03T12:09:14.771Z,66.58
2019-03-03T12:12:11.952Z,66.26
2019-03-03T12:15:15.103Z,65.92
2019-03-03T12:18:03.143Z,66.32
2019-03-03T12:20:49.699Z,65.47
2019-03-03T12:23:25.583Z,65.19
2019-03-03T12:26:07.233Z,64.92
2019-03-03T12:29:01.560Z,65.17
2019-03-03T12:31:40.126Z,64.71
2019-03-03T12:34:19.729Z,65.35
2019-03-03T12:37:07.258Z,64.64
2019-03-03T12:39:55.625Z,64.37
2019-03-03T12:42:46.921Z,64.67
2019-03-03T12:45:26.114Z,64.54
2019-03-03T12:48:03.350Z,64.70
2019-03-03T12:50:57.631Z,64.79
2019-03-03T12:53:43.426Z,65.35
2019-03-03T12:56:30.034Z,65.29
2019-03-03T12:59:24.491Z,65.01
2019-03-03T13:02:22.119Z,65.68
2019-03-03T13:05:06.602Z,65.59
2019-03-03T13:07:50.032Z,65.62
2019-03-03T13:10:47.454Z,65.71
2019-03-03T13:13:34.213Z,66.27
2019-03-03T13:16:22.119Z,65.32
2019-03-03T13:19:16.289Z,65.56
2019-03-03T13:22:04.650Z,64.82
2019-03-03T13:25:01.883Z,65.67
2019-03-03T13:27:52.783Z,65.11
2019-03-03T13:30:30.346Z,64.99
2019-03-03T13:33:26.115Z,64.93
2019-03-03T13:36:19.461Z,65.06
2019-03-03T13:39:06.569Z,65.13
2019-03-03T13:41:53.331Z,64.72
2019-03-03T13:44:22.445Z,65.04
2019-03-03T13:46:51.649Z,64.92
2019-03-03T13:49:21.927Z,65.65
2019-03-03T13:51:51.319Z,64.62
2019-03-03T13:54:20.424Z,64.64
2019-03-03T13:56:49.718Z,64.22
2019-03-03T13:59:18.886Z,64.16
2019-03-03T14:01:48.397Z,63.30
2019-03-03T14:04:17.521Z,62.54
2019-03-03T14:06:46.723Z,62.30
2019-03-03T14:09:15.903Z,61.57
2019-03-03T14:11:45.228Z,60.53
2019-03-03T14:14:14.418Z,60.50
2019-03-03T14:16:43.651Z,61.33
2019-03-03T14:19:12.748Z,60.21
2019-03-03T14:21:41.975Z,59.87
2019-03-03T14:24:11.088Z,60.55
2019-03-03T14:26:40.417Z,60.55
2019-03-03T14:29:09.759Z,60.65
2019-03-03T14:31:39.013Z,60.45
2019-03-03T14:34:08.102Z,60.03
2019-03-03T14:36:37.207Z,60.76
2019-03-03T14:39:07.695Z,59.70
2019-03-03T14:41:36.982Z,59.59
2019-03-03T14:44:06.494Z,61.25
2019-03-03T14:46:35.980Z,60.12
2019-03-03T14:49:05.259Z,60.86
2019-03-03T14:51:34.447Z,61.81
2019-03-03T14:54:04.035Z,61.47
2019-03-03T14:56:33.174Z,61.53
2019-03-03T14:59:02.238Z,61.74
2019-03-03T15:01:34.792Z,60.57
2019-03-03T15:04:04.283Z,61.28
2019-03-03T15:06:33.936Z,61.47
2019-03-03T15:09:04.695Z,61.43
2019-03-03T15:11:34.064Z,61.08
2019-03-03T15:14:06.350Z,61.77
2019-03-03T15:16:35.613Z,62.22
2019-03-03T15:19:04.800Z,61.63
2019-03-03T15:21:33.919Z,61.63
2019-03-03T15:24:03.697Z,61.60
2019-03-03T15:26:33.077Z,61.57
2019-03-03T15:29:02.499Z,62.25
2019-03-03T15:31:37.626Z,62.01
2019-03-03T15:34:02.989Z,61.68
2019-03-03T15:36:32.385Z,62.11
2019-03-03T15:39:01.645Z,62.72
2019-03-03T15:41:33.785Z,62.25
2019-03-03T15:44:03.201Z,62.29
2019-03-03T15:46:32.870Z,62.89
2019-03-03T15:49:02.090Z,62.68
2019-03-03T15:51:31.272Z,63.63
2019-03-03T15:54:04.274Z,63.31
2019-03-03T15:56:37.010Z,63.09
2019-03-03T15:59:06.524Z,63.08
2019-03-03T16:01:36.074Z,63.31
2019-03-03T16:04:07.008Z,62.78
2019-03-03T16:06:37.139Z,63.48
2019-03-03T16:09:10.862Z,63.53
2019-03-03T16:11:40.040Z,64.20
2019-03-03T16:14:09.804Z,64.51
2019-03-03T16:16:38.950Z,63.00
2019-03-03T16:19:08.243Z,63.19
2019-03-03T16:21:38.273Z,63.32
2019-03-03T16:24:09.321Z,63.00
2019-03-03T16:26:38.511Z,63.27
2019-03-03T16:29:07.610Z,63.69
2019-03-03T16:31:36.901Z,63.06
2019-03-03T16:34:06.789Z,63.73
2019-03-03T16:36:36.720Z,63.60
2019-03-03T16:39:07.462Z,63.62
2019-03-03T16:41:37.146Z,63.85
2019-03-03T16:44:06.311Z,63.14
2019-03-03T16:46:35.578Z,63.89
2019-03-03T16:49:04.722Z,62.72
2019-03-03T16:51:35.032Z,62.70
2019-03-03T16:54:04.146Z,62.65
2019-03-03T16:56:33.322Z,63.00
2019-03-03T16:59:02.887Z,62.66
2019-03-03T17:01:32.117Z,63.53
2019-03-03T17:04:01.389Z,62.74
2019-03-03T17:06:30.506Z,62.89
2019-03-03T17:08:59.597Z,63.29
2019-03-03T17:11:28.878Z,63.01
2019-03-03T17:13:58.095Z,62.85
2019-03-03T17:16:27.491Z,62.77
2019-03-03T17:18:56.593Z,63.17
2019-03-03T17:21:25.662Z,62.27
2019-03-03T17:23:54.835Z,62.96
2019-03-03T17:26:24.098Z,62.86
2019-03-03T17:28:53.192Z,62.78
2019-03-03T17:31:27.638Z,63.02
2019-03-03T17:33:56.739Z,62.94
2019-03-03T17:36:25.774Z,62.21
2019-03-03T17:38:55.225Z,62.45
2019-03-03T17:41:24.304Z,62.25
2019-03-03T17:43:53.406Z,62.68
2019-03-03T17:46:22.768Z,62.90
2019-03-03T17:48:51.999Z,62.80
2019-03-03T17:51:21.071Z,62.44
2019-03-03T17:53:50.405Z,62.25
2019-03-03T17:56:19.493Z,62.52
2019-03-03T17:58:48.924Z,62.37
2019-03-03T18:01:18.038Z,62.28
2019-03-03T18:03:47.304Z,62.20
2019-03-03T18:06:16.728Z,62.09
2019-03-03T18:08:45.790Z,61.99
2019-03-03T18:11:15.154Z,62.37
2019-03-03T18:13:44.238Z,62.35
2019-03-03T18:16:13.450Z,62.38
2019-03-03T18:18:42.581Z,62.48
2019-03-03T18:21:11.865Z,62.90
2019-03-03T18:23:41.090Z,62.74
2019-03-03T18:26:10.307Z,66.03
2019-03-03T18:28:39.509Z,62.91
2019-03-03T18:31:08.919Z,62.16
2019-03-03T18:33:37.983Z,62.65
2019-03-03T18:36:07.133Z,62.71
2019-03-03T18:38:36.437Z,62.27
2019-03-03T18:41:05.919Z,61.41
2019-03-03T18:43:35.605Z,64.10
2019-03-03T18:46:05.849Z,62.59
2019-03-03T18:48:36.325Z,62.20
2019-03-03T18:51:06.433Z,62.35
2019-03-03T18:53:35.660Z,61.80
2019-03-03T18:56:04.996Z,61.64
2019-03-03T18:58:34.159Z,62.25
2019-03-03T19:01:05.030Z,62.34
2019-03-03T19:03:35.317Z,61.53
2019-03-03T19:06:05.135Z,61.64
2019-03-03T19:08:34.837Z,62.07
2019-03-03T19:11:04.424Z,62.54
2019-03-03T19:13:35.607Z,61.35
2019-03-03T19:16:06.331Z,61.80
2019-03-03T19:18:37.162Z,61.99
2019-03-03T19:21:06.405Z,61.83
2019-03-03T19:23:36.208Z,61.84
2019-03-03T19:26:05.619Z,61.43
2019-03-03T19:28:34.923Z,61.27
2019-03-03T19:31:05.668Z,60.97
2019-03-03T19:33:39.838Z,61.41
2019-03-03T19:36:09.006Z,61.29
2019-03-03T19:38:38.276Z,61.15
2019-03-03T19:41:07.368Z,60.90
2019-03-03T19:43:38.109Z,60.58
2019-03-03T19:46:07.817Z,60.76
2019-03-03T19:48:37.004Z,60.33
2019-03-03T19:51:06.653Z,60.27
2019-03-03T19:53:35.820Z,60.05
2019-03-03T19:56:05.122Z,60.60
2019-03-03T19:58:34.330Z,60.62
2019-03-03T20:01:06.156Z,60.51
2019-03-03T20:03:35.865Z,60.79
2019-03-03T20:06:04.990Z,61.00
2019-03-03T20:08:34.393Z,61.22
2019-03-03T20:11:03.843Z,60.20
2019-03-03T20:13:33.551Z,60.65
2019-03-03T20:16:02.664Z,60.81
2019-03-03T20:18:32.409Z,60.82
2019-03-03T20:21:01.736Z,60.86
2019-03-03T20:23:31.072Z,61.18
2019-03-03T20:26:01.237Z,60.43
2019-03-03T20:28:30.623Z,60.13
2019-03-03T20:30:59.953Z,59.97
2019-03-03T20:33:29.251Z,60.23
2019-03-03T20:35:58.591Z,59.92
2019-03-03T20:38:27.860Z,60.15
2019-03-03T20:40:57.742Z,60.81
2019-03-03T20:43:26.973Z,61.16
2019-03-03T20:45:57.749Z,60.65
2019-03-03T20:48:27.280Z,60.89
2019-03-03T20:50:56.518Z,61.17
2019-03-03T20:53:25.896Z,61.71
2019-03-03T20:55:55.110Z,62.06
2019-03-03T20:58:24.510Z,62.47
2019-03-03T21:00:55.539Z,63.23
2019-03-03T21:03:24.772Z,63.15
2019-03-03T21:05:54.093Z,62.77
2019-03-03T21:08:23.854Z,63.04
2019-03-03T21:10:53.307Z,63.52
2019-03-03T21:13:22.841Z,63.00
2019-03-03T21:15:52.538Z,62.53
2019-03-03T21:18:21.918Z,61.95
2019-03-03T21:20:51.880Z,62.23
2019-03-03T21:23:21.199Z,61.93
2019-03-03T21:25:50.365Z,61.33
2019-03-03T21:28:21.419Z,61.65
2019-03-03T21:30:50.689Z,61.57
2019-03-03T21:33:20.374Z,61.82
2019-03-03T21:35:50.040Z,62.00
2019-03-03T21:38:19.721Z,61.58
2019-03-03T21:40:48.756Z,61.68
2019-03-03T21:43:17.931Z,63.86
2019-03-03T21:45:47.363Z,61.53
2019-03-03T21:48:16.479Z,63.05
2019-03-03T21:50:45.855Z,60.01
2019-03-03T21:53:15.490Z,59.19
2019-03-03T21:55:45.371Z,58.09
2019-03-03T21:58:14.849Z,58.22
2019-03-03T22:00:44.918Z,57.43
2019-03-03T22:03:15.743Z,57.90
2019-03-03T22:05:45.109Z,58.53
2019-03-03T22:08:14.239Z,58.56
2019-03-03T22:10:43.335Z,59.06
2019-03-03T22:13:13.682Z,59.08
2019-03-03T22:15:42.809Z,59.01
2019-03-03T22:18:11.898Z,59.79
2019-03-03T22:20:41.074Z,59.96
2019-03-03T22:23:10.182Z,59.67
2019-03-03T22:25:41.321Z,59.54
2019-03-03T22:28:11.273Z,59.71
2019-03-03T22:30:40.719Z,59.98
2019-03-03T22:33:09.995Z,60.01
2019-03-03T22:35:39.323Z,59.92
2019-03-03T22:38:09.353Z,60.31
2019-03-03T22:40:38.628Z,60.78
2019-03-03T22:43:07.927Z,61.48
2019-03-03T22:45:37.057Z,61.36
2019-03-03T22:48:06.297Z,61.90
2019-03-03T22:50:35.730Z,62.28
2019-03-03T22:53:04.920Z,62.19
2019-03-03T22:55:40.490Z,62.60
2019-03-03T22:58:10.211Z,63.07
2019-03-03T23:01:07.971Z,64.14
2019-03-03T23:04:08.355Z,64.50
2019-03-03T23:06:55.045Z,64.85
2019-03-03T23:10:08.613Z,65.19
2019-03-03T23:13:01.952Z,65.12
2019-03-03T23:15:55.229Z,65.29
2019-03-03T23:18:54.665Z,65.65
2019-03-03T23:21:32.094Z,66.08
2019-03-03T23:24:36.017Z,66.50
2019-03-03T23:27:05.652Z,66.81
2019-03-03T23:29:34.675Z,67.58
2019-03-03T23:32:03.984Z,66.03
2019-03-03T23:34:33.212Z,66.21
2019-03-03T23:37:02.642Z,66.88
2019-03-03T23:39:32.265Z,67.51
2019-03-03T23:42:01.659Z,67.00
2019-03-03T23:44:30.812Z,66.35
2019-03-03T23:47:00.151Z,66.53
2019-03-03T23:49:29.190Z,66.47
2019-03-03T23:51:58.390Z,66.91
2019-03-03T23:54:27.478Z,67.33
2019-03-03T23:56:56.724Z,66.65
2019-03-03T23:59:26.159Z,66.59
